sensor_id;sensor_type;location;lat;lon;timestamp;P1;durP1;ratioP1;P2;durP2;ratioP2
6566;SDS011;3317;43.994;22.878;2023-04-15T00:01:50;9.83;;;6.17;;
6566;SDS011;3317;43.994;22.878;2023-04-15T00:04:17;9.13;;;5.10;;
6566;SDS011;3317;43.994;22.878;2023-04-15T00:06:48;10.10;;;4.10;;
6566;SDS011;3317;43.994;22.878;2023-04-15T00:09:18;8.60;;;4.13;;
6566;SDS011;3317;43.994;22.878;2023-04-15T00:11:45;6.07;;;3.70;;
6566;SDS011;3317;43.994;22.878;2023-04-15T00:14:12;5.13;;;3.20;;
6566;SDS011;3317;43.994;22.878;2023-04-15T00:16:39;4.27;;;2.93;;
6566;SDS011;3317;43.994;22.878;2023-04-15T00:19:06;4.70;;;3.50;;
6566;SDS011;3317;43.994;22.878;2023-04-15T00:21:33;8.43;;;4.40;;
6566;SDS011;3317;43.994;22.878;2023-04-15T00:24:00;5.13;;;4.00;;
6566;SDS011;3317;43.994;22.878;2023-04-15T00:26:29;6.70;;;4.10;;
6566;SDS011;3317;43.994;22.878;2023-04-15T00:28:56;4.97;;;3.10;;
6566;SDS011;3317;43.994;22.878;2023-04-15T00:31:23;4.83;;;2.60;;
6566;SDS011;3317;43.994;22.878;2023-04-15T00:33:50;4.60;;;2.33;;
6566;SDS011;3317;43.994;22.878;2023-04-15T00:36:17;3.50;;;2.40;;
6566;SDS011;3317;43.994;22.878;2023-04-15T00:38:44;3.77;;;2.10;;
6566;SDS011;3317;43.994;22.878;2023-04-15T00:41:11;3.20;;;2.20;;
6566;SDS011;3317;43.994;22.878;2023-04-15T00:43:39;4.60;;;2.73;;
6566;SDS011;3317;43.994;22.878;2023-04-15T00:46:07;4.40;;;2.93;;
6566;SDS011;3317;43.994;22.878;2023-04-15T00:48:35;5.70;;;2.17;;
6566;SDS011;3317;43.994;22.878;2023-04-15T00:51:03;1.57;;;1.47;;
6566;SDS011;3317;43.994;22.878;2023-04-15T00:53:31;4.63;;;1.80;;
6566;SDS011;3317;43.994;22.878;2023-04-15T00:55:58;3.50;;;1.70;;
6566;SDS011;3317;43.994;22.878;2023-04-15T00:58:25;3.60;;;2.00;;
6566;SDS011;3317;43.994;22.878;2023-04-15T01:00:54;2.90;;;1.70;;
6566;SDS011;3317;43.994;22.878;2023-04-15T01:03:22;3.13;;;2.00;;
6566;SDS011;3317;43.994;22.878;2023-04-15T01:05:49;4.30;;;1.80;;
6566;SDS011;3317;43.994;22.878;2023-04-15T01:08:22;5.63;;;3.33;;
6566;SDS011;3317;43.994;22.878;2023-04-15T01:10:49;8.13;;;5.53;;
6566;SDS011;3317;43.994;22.878;2023-04-15T01:13:17;3.17;;;2.10;;
6566;SDS011;3317;43.994;22.878;2023-04-15T01:15:45;2.27;;;1.63;;
6566;SDS011;3317;43.994;22.878;2023-04-15T01:18:14;2.67;;;2.10;;
6566;SDS011;3317;43.994;22.878;2023-04-15T01:20:41;3.57;;;2.10;;
6566;SDS011;3317;43.994;22.878;2023-04-15T01:23:08;3.43;;;1.90;;
6566;SDS011;3317;43.994;22.878;2023-04-15T01:25:37;2.20;;;1.90;;
6566;SDS011;3317;43.994;22.878;2023-04-15T01:28:04;4.23;;;1.90;;
6566;SDS011;3317;43.994;22.878;2023-04-15T01:30:32;2.40;;;2.00;;
6566;SDS011;3317;43.994;22.878;2023-04-15T01:32:59;4.00;;;2.33;;
6566;SDS011;3317;43.994;22.878;2023-04-15T01:35:26;4.70;;;2.10;;
6566;SDS011;3317;43.994;22.878;2023-04-15T01:37:54;3.63;;;1.80;;
6566;SDS011;3317;43.994;22.878;2023-04-15T01:40:27;3.50;;;2.30;;
6566;SDS011;3317;43.994;22.878;2023-04-15T01:42:55;3.90;;;1.63;;
6566;SDS011;3317;43.994;22.878;2023-04-15T01:45:22;2.53;;;1.83;;
6566;SDS011;3317;43.994;22.878;2023-04-15T01:47:49;4.00;;;1.80;;
6566;SDS011;3317;43.994;22.878;2023-04-15T01:50:16;4.80;;;2.00;;
6566;SDS011;3317;43.994;22.878;2023-04-15T01:52:45;1.93;;;1.30;;
6566;SDS011;3317;43.994;22.878;2023-04-15T01:55:12;4.20;;;1.30;;
6566;SDS011;3317;43.994;22.878;2023-04-15T01:57:40;3.43;;;1.70;;
6566;SDS011;3317;43.994;22.878;2023-04-15T02:00:09;5.50;;;1.43;;
6566;SDS011;3317;43.994;22.878;2023-04-15T02:02:37;1.93;;;1.43;;
6566;SDS011;3317;43.994;22.878;2023-04-15T02:05:04;19.50;;;13.10;;
6566;SDS011;3317;43.994;22.878;2023-04-15T02:07:31;6.67;;;2.53;;
6566;SDS011;3317;43.994;22.878;2023-04-15T02:09:58;4.23;;;3.83;;
6566;SDS011;3317;43.994;22.878;2023-04-15T02:12:25;5.37;;;2.50;;
6566;SDS011;3317;43.994;22.878;2023-04-15T02:14:52;3.30;;;2.00;;
6566;SDS011;3317;43.994;22.878;2023-04-15T02:17:21;3.43;;;2.20;;
6566;SDS011;3317;43.994;22.878;2023-04-15T02:19:48;1.83;;;1.60;;
6566;SDS011;3317;43.994;22.878;2023-04-15T02:22:15;4.87;;;1.87;;
6566;SDS011;3317;43.994;22.878;2023-04-15T02:24:42;4.23;;;2.60;;
6566;SDS011;3317;43.994;22.878;2023-04-15T02:27:10;5.50;;;3.47;;
6566;SDS011;3317;43.994;22.878;2023-04-15T02:29:40;5.67;;;3.27;;
6566;SDS011;3317;43.994;22.878;2023-04-15T02:32:08;7.60;;;2.90;;
6566;SDS011;3317;43.994;22.878;2023-04-15T02:34:37;2.80;;;2.40;;
6566;SDS011;3317;43.994;22.878;2023-04-15T02:37:05;7.10;;;2.67;;
6566;SDS011;3317;43.994;22.878;2023-04-15T02:39:32;2.47;;;1.80;;
6566;SDS011;3317;43.994;22.878;2023-04-15T02:41:59;5.30;;;4.80;;
6566;SDS011;3317;43.994;22.878;2023-04-15T02:44:26;3.30;;;2.43;;
6566;SDS011;3317;43.994;22.878;2023-04-15T02:46:53;2.60;;;1.80;;
6566;SDS011;3317;43.994;22.878;2023-04-15T02:49:20;3.40;;;2.40;;
6566;SDS011;3317;43.994;22.878;2023-04-15T02:51:49;3.70;;;2.90;;
6566;SDS011;3317;43.994;22.878;2023-04-15T02:54:15;5.80;;;3.67;;
6566;SDS011;3317;43.994;22.878;2023-04-15T02:56:42;4.80;;;4.33;;
6566;SDS011;3317;43.994;22.878;2023-04-15T02:59:10;5.33;;;2.47;;
6566;SDS011;3317;43.994;22.878;2023-04-15T03:01:37;3.40;;;2.53;;
6566;SDS011;3317;43.994;22.878;2023-04-15T03:04:04;2.90;;;2.53;;
6566;SDS011;3317;43.994;22.878;2023-04-15T03:06:31;3.03;;;2.73;;
6566;SDS011;3317;43.994;22.878;2023-04-15T03:09:00;5.83;;;2.80;;
6566;SDS011;3317;43.994;22.878;2023-04-15T03:11:27;2.67;;;2.43;;
6566;SDS011;3317;43.994;22.878;2023-04-15T03:13:55;2.97;;;2.30;;
6566;SDS011;3317;43.994;22.878;2023-04-15T03:16:22;4.43;;;2.77;;
6566;SDS011;3317;43.994;22.878;2023-04-15T03:18:49;3.27;;;2.60;;
6566;SDS011;3317;43.994;22.878;2023-04-15T03:21:16;3.03;;;2.20;;
6566;SDS011;3317;43.994;22.878;2023-04-15T03:23:44;4.17;;;3.07;;
6566;SDS011;3317;43.994;22.878;2023-04-15T03:26:23;3.50;;;3.20;;
6566;SDS011;3317;43.994;22.878;2023-04-15T03:28:53;3.60;;;2.97;;
6566;SDS011;3317;43.994;22.878;2023-04-15T03:31:20;2.43;;;2.23;;
6566;SDS011;3317;43.994;22.878;2023-04-15T03:33:47;2.90;;;2.03;;
6566;SDS011;3317;43.994;22.878;2023-04-15T03:36:14;2.00;;;1.80;;
6566;SDS011;3317;43.994;22.878;2023-04-15T03:38:42;5.20;;;4.50;;
6566;SDS011;3317;43.994;22.878;2023-04-15T03:41:09;4.50;;;4.10;;
6566;SDS011;3317;43.994;22.878;2023-04-15T03:43:37;2.80;;;2.53;;
6566;SDS011;3317;43.994;22.878;2023-04-15T03:46:04;2.57;;;2.30;;
6566;SDS011;3317;43.994;22.878;2023-04-15T03:48:31;2.60;;;2.40;;
6566;SDS011;3317;43.994;22.878;2023-04-15T03:50:58;2.20;;;2.00;;
6566;SDS011;3317;43.994;22.878;2023-04-15T03:53:25;3.33;;;2.80;;
6566;SDS011;3317;43.994;22.878;2023-04-15T03:55:52;6.37;;;5.87;;
6566;SDS011;3317;43.994;22.878;2023-04-15T03:58:19;4.80;;;4.40;;
6566;SDS011;3317;43.994;22.878;2023-04-15T04:00:47;5.13;;;3.70;;
6566;SDS011;3317;43.994;22.878;2023-04-15T04:03:14;4.43;;;3.30;;
6566;SDS011;3317;43.994;22.878;2023-04-15T04:05:41;6.43;;;4.47;;
6566;SDS011;3317;43.994;22.878;2023-04-15T04:08:08;7.87;;;4.80;;
6566;SDS011;3317;43.994;22.878;2023-04-15T04:10:37;8.60;;;5.57;;
6566;SDS011;3317;43.994;22.878;2023-04-15T04:13:05;6.37;;;4.67;;
6566;SDS011;3317;43.994;22.878;2023-04-15T04:15:32;6.93;;;4.70;;
6566;SDS011;3317;43.994;22.878;2023-04-15T04:18:00;11.70;;;7.03;;
6566;SDS011;3317;43.994;22.878;2023-04-15T04:20:27;25.67;;;13.63;;
6566;SDS011;3317;43.994;22.878;2023-04-15T04:22:56;16.90;;;11.30;;
6566;SDS011;3317;43.994;22.878;2023-04-15T04:25:23;23.53;;;16.73;;
6566;SDS011;3317;43.994;22.878;2023-04-15T04:27:50;34.10;;;22.33;;
6566;SDS011;3317;43.994;22.878;2023-04-15T04:30:17;15.97;;;11.43;;
6566;SDS011;3317;43.994;22.878;2023-04-15T04:32:44;15.13;;;10.67;;
6566;SDS011;3317;43.994;22.878;2023-04-15T04:35:12;9.50;;;6.53;;
6566;SDS011;3317;43.994;22.878;2023-04-15T04:37:40;4.10;;;3.50;;
6566;SDS011;3317;43.994;22.878;2023-04-15T04:40:07;5.90;;;4.20;;
6566;SDS011;3317;43.994;22.878;2023-04-15T04:42:35;3.90;;;3.00;;
6566;SDS011;3317;43.994;22.878;2023-04-15T04:45:02;4.17;;;2.80;;
6566;SDS011;3317;43.994;22.878;2023-04-15T04:47:29;6.43;;;3.50;;
6566;SDS011;3317;43.994;22.878;2023-04-15T04:49:56;4.10;;;3.10;;
6566;SDS011;3317;43.994;22.878;2023-04-15T04:52:24;4.83;;;3.17;;
6566;SDS011;3317;43.994;22.878;2023-04-15T04:54:51;4.60;;;3.60;;
6566;SDS011;3317;43.994;22.878;2023-04-15T04:57:18;5.03;;;3.10;;
6566;SDS011;3317;43.994;22.878;2023-04-15T04:59:45;4.13;;;3.17;;
6566;SDS011;3317;43.994;22.878;2023-04-15T05:02:12;4.73;;;2.80;;
6566;SDS011;3317;43.994;22.878;2023-04-15T05:04:38;5.80;;;3.17;;
6566;SDS011;3317;43.994;22.878;2023-04-15T05:07:05;3.40;;;2.73;;
6566;SDS011;3317;43.994;22.878;2023-04-15T05:09:34;4.20;;;3.70;;
6566;SDS011;3317;43.994;22.878;2023-04-15T05:12:01;7.83;;;4.13;;
6566;SDS011;3317;43.994;22.878;2023-04-15T05:14:29;4.23;;;2.67;;
6566;SDS011;3317;43.994;22.878;2023-04-15T05:16:56;5.47;;;2.47;;
6566;SDS011;3317;43.994;22.878;2023-04-15T05:19:23;6.50;;;4.00;;
6566;SDS011;3317;43.994;22.878;2023-04-15T05:21:50;4.60;;;2.60;;
6566;SDS011;3317;43.994;22.878;2023-04-15T05:24:17;5.40;;;2.93;;
6566;SDS011;3317;43.994;22.878;2023-04-15T05:26:45;3.00;;;1.50;;
6566;SDS011;3317;43.994;22.878;2023-04-15T05:29:12;2.30;;;1.27;;
6566;SDS011;3317;43.994;22.878;2023-04-15T05:31:38;2.70;;;1.40;;
6566;SDS011;3317;43.994;22.878;2023-04-15T05:34:06;4.53;;;1.50;;
6566;SDS011;3317;43.994;22.878;2023-04-15T05:36:33;5.50;;;1.80;;
6566;SDS011;3317;43.994;22.878;2023-04-15T05:39:00;3.87;;;2.57;;
6566;SDS011;3317;43.994;22.878;2023-04-15T05:41:28;7.43;;;2.93;;
6566;SDS011;3317;43.994;22.878;2023-04-15T05:43:56;6.33;;;3.70;;
6566;SDS011;3317;43.994;22.878;2023-04-15T05:46:23;2.37;;;1.73;;
6566;SDS011;3317;43.994;22.878;2023-04-15T05:48:50;3.00;;;1.93;;
6566;SDS011;3317;43.994;22.878;2023-04-15T05:51:17;2.60;;;2.13;;
6566;SDS011;3317;43.994;22.878;2023-04-15T05:53:44;4.07;;;2.50;;
6566;SDS011;3317;43.994;22.878;2023-04-15T05:56:11;5.47;;;2.17;;
6566;SDS011;3317;43.994;22.878;2023-04-15T05:58:38;4.47;;;2.80;;
6566;SDS011;3317;43.994;22.878;2023-04-15T06:01:06;3.87;;;2.40;;
6566;SDS011;3317;43.994;22.878;2023-04-15T06:03:33;4.77;;;2.20;;
6566;SDS011;3317;43.994;22.878;2023-04-15T06:06:00;5.03;;;2.90;;
6566;SDS011;3317;43.994;22.878;2023-04-15T06:08:27;5.30;;;2.67;;
6566;SDS011;3317;43.994;22.878;2023-04-15T06:10:54;5.30;;;2.70;;
6566;SDS011;3317;43.994;22.878;2023-04-15T06:13:21;4.03;;;2.40;;
6566;SDS011;3317;43.994;22.878;2023-04-15T06:15:48;4.00;;;2.27;;
6566;SDS011;3317;43.994;22.878;2023-04-15T06:18:16;6.87;;;3.37;;
6566;SDS011;3317;43.994;22.878;2023-04-15T06:20:44;4.97;;;2.30;;
6566;SDS011;3317;43.994;22.878;2023-04-15T06:23:11;2.80;;;2.20;;
6566;SDS011;3317;43.994;22.878;2023-04-15T06:25:38;3.00;;;1.60;;
6566;SDS011;3317;43.994;22.878;2023-04-15T06:28:05;2.47;;;2.03;;
6566;SDS011;3317;43.994;22.878;2023-04-15T06:30:33;2.63;;;1.97;;
6566;SDS011;3317;43.994;22.878;2023-04-15T06:33:01;5.53;;;2.23;;
6566;SDS011;3317;43.994;22.878;2023-04-15T06:35:31;3.90;;;2.13;;
6566;SDS011;3317;43.994;22.878;2023-04-15T06:37:57;2.40;;;1.67;;
6566;SDS011;3317;43.994;22.878;2023-04-15T06:40:24;4.37;;;1.70;;
6566;SDS011;3317;43.994;22.878;2023-04-15T06:42:51;2.63;;;1.67;;
6566;SDS011;3317;43.994;22.878;2023-04-15T06:45:18;3.73;;;1.30;;
6566;SDS011;3317;43.994;22.878;2023-04-15T06:47:45;2.87;;;1.60;;
6566;SDS011;3317;43.994;22.878;2023-04-15T06:50:12;4.53;;;1.30;;
6566;SDS011;3317;43.994;22.878;2023-04-15T06:52:40;2.87;;;1.80;;
6566;SDS011;3317;43.994;22.878;2023-04-15T06:55:08;2.60;;;1.60;;
6566;SDS011;3317;43.994;22.878;2023-04-15T06:57:35;3.47;;;1.60;;
6566;SDS011;3317;43.994;22.878;2023-04-15T07:00:02;5.20;;;1.93;;
6566;SDS011;3317;43.994;22.878;2023-04-15T07:02:30;4.83;;;2.40;;
6566;SDS011;3317;43.994;22.878;2023-04-15T07:04:56;4.30;;;1.60;;
6566;SDS011;3317;43.994;22.878;2023-04-15T07:07:23;3.90;;;1.53;;
6566;SDS011;3317;43.994;22.878;2023-04-15T07:09:54;8.97;;;2.30;;
6566;SDS011;3317;43.994;22.878;2023-04-15T07:12:21;2.37;;;1.00;;
6566;SDS011;3317;43.994;22.878;2023-04-15T07:14:48;3.20;;;1.47;;
6566;SDS011;3317;43.994;22.878;2023-04-15T07:17:15;5.20;;;2.13;;
6566;SDS011;3317;43.994;22.878;2023-04-15T07:19:42;1.73;;;1.13;;
6566;SDS011;3317;43.994;22.878;2023-04-15T07:22:09;3.17;;;1.40;;
6566;SDS011;3317;43.994;22.878;2023-04-15T07:24:35;2.00;;;1.50;;
6566;SDS011;3317;43.994;22.878;2023-04-15T07:27:04;3.80;;;1.27;;
6566;SDS011;3317;43.994;22.878;2023-04-15T07:29:31;2.50;;;1.23;;
6566;SDS011;3317;43.994;22.878;2023-04-15T07:31:58;4.83;;;1.33;;
6566;SDS011;3317;43.994;22.878;2023-04-15T07:34:26;3.47;;;1.13;;
6566;SDS011;3317;43.994;22.878;2023-04-15T07:36:53;4.03;;;1.80;;
6566;SDS011;3317;43.994;22.878;2023-04-15T07:39:20;1.70;;;1.20;;
6566;SDS011;3317;43.994;22.878;2023-04-15T07:41:47;5.30;;;1.50;;
6566;SDS011;3317;43.994;22.878;2023-04-15T07:44:15;3.77;;;1.50;;
6566;SDS011;3317;43.994;22.878;2023-04-15T07:46:42;4.37;;;1.33;;
6566;SDS011;3317;43.994;22.878;2023-04-15T07:49:09;11.10;;;1.37;;
6566;SDS011;3317;43.994;22.878;2023-04-15T07:51:37;2.43;;;1.27;;
6566;SDS011;3317;43.994;22.878;2023-04-15T07:54:04;3.27;;;1.27;;
6566;SDS011;3317;43.994;22.878;2023-04-15T07:56:31;2.77;;;1.30;;
6566;SDS011;3317;43.994;22.878;2023-04-15T07:58:58;2.27;;;1.20;;
6566;SDS011;3317;43.994;22.878;2023-04-15T08:01:27;3.17;;;1.50;;
6566;SDS011;3317;43.994;22.878;2023-04-15T08:03:54;1.90;;;1.30;;
6566;SDS011;3317;43.994;22.878;2023-04-15T08:06:21;3.37;;;1.50;;
6566;SDS011;3317;43.994;22.878;2023-04-15T08:08:48;3.70;;;1.60;;
6566;SDS011;3317;43.994;22.878;2023-04-15T08:11:16;1.67;;;1.00;;
6566;SDS011;3317;43.994;22.878;2023-04-15T08:13:43;2.77;;;1.17;;
6566;SDS011;3317;43.994;22.878;2023-04-15T08:16:14;5.80;;;1.33;;
6566;SDS011;3317;43.994;22.878;2023-04-15T08:18:45;2.50;;;1.10;;
6566;SDS011;3317;43.994;22.878;2023-04-15T08:21:12;2.40;;;1.17;;
6566;SDS011;3317;43.994;22.878;2023-04-15T08:23:39;2.13;;;1.23;;
6566;SDS011;3317;43.994;22.878;2023-04-15T08:26:06;2.63;;;1.47;;
6566;SDS011;3317;43.994;22.878;2023-04-15T08:28:34;1.67;;;1.07;;
6566;SDS011;3317;43.994;22.878;2023-04-15T08:31:02;3.53;;;1.50;;
6566;SDS011;3317;43.994;22.878;2023-04-15T08:33:29;3.03;;;1.20;;
6566;SDS011;3317;43.994;22.878;2023-04-15T08:35:57;3.00;;;1.30;;
6566;SDS011;3317;43.994;22.878;2023-04-15T08:38:24;3.70;;;1.60;;
6566;SDS011;3317;43.994;22.878;2023-04-15T08:40:51;4.13;;;1.47;;
6566;SDS011;3317;43.994;22.878;2023-04-15T08:43:19;2.27;;;1.60;;
6566;SDS011;3317;43.994;22.878;2023-04-15T08:45:50;2.90;;;1.33;;
6566;SDS011;3317;43.994;22.878;2023-04-15T08:48:18;1.70;;;1.40;;
6566;SDS011;3317;43.994;22.878;2023-04-15T08:50:45;1.50;;;1.10;;
6566;SDS011;3317;43.994;22.878;2023-04-15T08:53:14;1.80;;;1.10;;
6566;SDS011;3317;43.994;22.878;2023-04-15T08:55:42;1.93;;;0.90;;
6566;SDS011;3317;43.994;22.878;2023-04-15T08:58:10;1.30;;;0.90;;
6566;SDS011;3317;43.994;22.878;2023-04-15T09:00:37;4.97;;;1.83;;
6566;SDS011;3317;43.994;22.878;2023-04-15T09:03:04;4.13;;;1.93;;
6566;SDS011;3317;43.994;22.878;2023-04-15T09:05:32;2.77;;;1.20;;
6566;SDS011;3317;43.994;22.878;2023-04-15T09:08:02;2.03;;;1.30;;
6566;SDS011;3317;43.994;22.878;2023-04-15T09:10:31;3.80;;;1.53;;
6566;SDS011;3317;43.994;22.878;2023-04-15T09:12:58;1.53;;;0.87;;
6566;SDS011;3317;43.994;22.878;2023-04-15T09:15:26;4.23;;;1.30;;
6566;SDS011;3317;43.994;22.878;2023-04-15T09:17:54;8.50;;;3.53;;
6566;SDS011;3317;43.994;22.878;2023-04-15T09:20:21;5.53;;;3.03;;
6566;SDS011;3317;43.994;22.878;2023-04-15T09:22:49;2.67;;;1.50;;
6566;SDS011;3317;43.994;22.878;2023-04-15T09:25:26;2.13;;;1.33;;
6566;SDS011;3317;43.994;22.878;2023-04-15T09:27:56;1.97;;;1.27;;
6566;SDS011;3317;43.994;22.878;2023-04-15T09:30:26;4.53;;;1.23;;
6566;SDS011;3317;43.994;22.878;2023-04-15T09:32:53;5.43;;;2.00;;
6566;SDS011;3317;43.994;22.878;2023-04-15T09:35:22;2.97;;;1.90;;
6566;SDS011;3317;43.994;22.878;2023-04-15T09:37:49;4.97;;;1.70;;
6566;SDS011;3317;43.994;22.878;2023-04-15T09:40:29;2.40;;;1.10;;
6566;SDS011;3317;43.994;22.878;2023-04-15T09:42:58;4.77;;;1.50;;
6566;SDS011;3317;43.994;22.878;2023-04-15T09:45:26;2.30;;;1.50;;
6566;SDS011;3317;43.994;22.878;2023-04-15T09:47:53;3.20;;;1.13;;
6566;SDS011;3317;43.994;22.878;2023-04-15T09:50:20;1.63;;;1.10;;
6566;SDS011;3317;43.994;22.878;2023-04-15T09:52:47;5.57;;;1.17;;
6566;SDS011;3317;43.994;22.878;2023-04-15T09:55:14;3.13;;;1.93;;
6566;SDS011;3317;43.994;22.878;2023-04-15T09:57:44;1.90;;;1.10;;
6566;SDS011;3317;43.994;22.878;2023-04-15T10:00:14;3.00;;;1.07;;
6566;SDS011;3317;43.994;22.878;2023-04-15T10:02:41;2.17;;;1.10;;
6566;SDS011;3317;43.994;22.878;2023-04-15T10:05:09;2.90;;;1.30;;
6566;SDS011;3317;43.994;22.878;2023-04-15T10:07:39;1.93;;;1.10;;
6566;SDS011;3317;43.994;22.878;2023-04-15T10:10:07;2.53;;;1.53;;
6566;SDS011;3317;43.994;22.878;2023-04-15T10:12:35;1.63;;;1.10;;
6566;SDS011;3317;43.994;22.878;2023-04-15T10:15:04;2.90;;;1.10;;
6566;SDS011;3317;43.994;22.878;2023-04-15T10:17:35;3.10;;;1.50;;
6566;SDS011;3317;43.994;22.878;2023-04-15T10:20:03;2.10;;;1.23;;
6566;SDS011;3317;43.994;22.878;2023-04-15T10:22:31;2.17;;;1.60;;
6566;SDS011;3317;43.994;22.878;2023-04-15T10:24:58;2.13;;;1.20;;
6566;SDS011;3317;43.994;22.878;2023-04-15T10:27:26;3.57;;;1.40;;
6566;SDS011;3317;43.994;22.878;2023-04-15T10:29:53;1.10;;;1.00;;
6566;SDS011;3317;43.994;22.878;2023-04-15T10:32:21;0.80;;;0.80;;
6566;SDS011;3317;43.994;22.878;2023-04-15T10:34:51;1.93;;;1.20;;
6566;SDS011;3317;43.994;22.878;2023-04-15T10:37:19;1.97;;;1.10;;
6566;SDS011;3317;43.994;22.878;2023-04-15T10:39:47;2.10;;;1.37;;
6566;SDS011;3317;43.994;22.878;2023-04-15T10:42:15;2.60;;;1.53;;
6566;SDS011;3317;43.994;22.878;2023-04-15T10:44:43;3.20;;;1.87;;
6566;SDS011;3317;43.994;22.878;2023-04-15T10:47:16;3.90;;;1.70;;
6566;SDS011;3317;43.994;22.878;2023-04-15T10:49:45;2.20;;;1.33;;
6566;SDS011;3317;43.994;22.878;2023-04-15T10:52:15;2.40;;;1.27;;
6566;SDS011;3317;43.994;22.878;2023-04-15T10:54:43;2.50;;;1.20;;
6566;SDS011;3317;43.994;22.878;2023-04-15T10:57:14;2.30;;;1.10;;
6566;SDS011;3317;43.994;22.878;2023-04-15T10:59:59;3.83;;;1.80;;
6566;SDS011;3317;43.994;22.878;2023-04-15T11:02:44;1.93;;;1.00;;
6566;SDS011;3317;43.994;22.878;2023-04-15T11:05:12;1.10;;;0.73;;
6566;SDS011;3317;43.994;22.878;2023-04-15T11:07:47;1.50;;;0.80;;
6566;SDS011;3317;43.994;22.878;2023-04-15T11:13:21;2.90;;;1.10;;
6566;SDS011;3317;43.994;22.878;2023-04-15T11:15:53;3.63;;;1.53;;
6566;SDS011;3317;43.994;22.878;2023-04-15T11:18:23;2.00;;;1.30;;
6566;SDS011;3317;43.994;22.878;2023-04-15T11:20:52;2.83;;;1.17;;
6566;SDS011;3317;43.994;22.878;2023-04-15T11:23:27;3.63;;;0.97;;
6566;SDS011;3317;43.994;22.878;2023-04-15T11:25:57;1.97;;;1.00;;
6566;SDS011;3317;43.994;22.878;2023-04-15T11:28:25;3.03;;;0.90;;
6566;SDS011;3317;43.994;22.878;2023-04-15T11:30:53;1.47;;;1.00;;
6566;SDS011;3317;43.994;22.878;2023-04-15T11:33:21;1.33;;;1.00;;
6566;SDS011;3317;43.994;22.878;2023-04-15T11:35:49;2.33;;;1.20;;
6566;SDS011;3317;43.994;22.878;2023-04-15T11:38:18;2.80;;;1.47;;
6566;SDS011;3317;43.994;22.878;2023-04-15T11:40:46;4.37;;;1.20;;
6566;SDS011;3317;43.994;22.878;2023-04-15T11:43:14;3.10;;;1.07;;
6566;SDS011;3317;43.994;22.878;2023-04-15T11:45:48;2.93;;;1.10;;
6566;SDS011;3317;43.994;22.878;2023-04-15T11:48:17;3.17;;;1.30;;
6566;SDS011;3317;43.994;22.878;2023-04-15T11:50:51;2.60;;;1.20;;
6566;SDS011;3317;43.994;22.878;2023-04-15T11:53:19;2.20;;;1.00;;
6566;SDS011;3317;43.994;22.878;2023-04-15T11:55:48;2.40;;;1.20;;
6566;SDS011;3317;43.994;22.878;2023-04-15T11:58:17;3.17;;;1.30;;
6566;SDS011;3317;43.994;22.878;2023-04-15T12:00:46;2.07;;;1.00;;
6566;SDS011;3317;43.994;22.878;2023-04-15T12:03:16;2.50;;;1.17;;
6566;SDS011;3317;43.994;22.878;2023-04-15T12:08:49;3.73;;;1.03;;
6566;SDS011;3317;43.994;22.878;2023-04-15T12:14:12;3.37;;;1.37;;
6566;SDS011;3317;43.994;22.878;2023-04-15T12:16:46;1.10;;;0.90;;
6566;SDS011;3317;43.994;22.878;2023-04-15T12:19:15;2.90;;;1.13;;
6566;SDS011;3317;43.994;22.878;2023-04-15T12:21:44;2.77;;;1.20;;
6566;SDS011;3317;43.994;22.878;2023-04-15T12:24:12;2.23;;;1.57;;
6566;SDS011;3317;43.994;22.878;2023-04-15T12:26:43;1.63;;;1.10;;
6566;SDS011;3317;43.994;22.878;2023-04-15T12:29:13;1.63;;;1.07;;
6566;SDS011;3317;43.994;22.878;2023-04-15T12:31:48;3.53;;;1.40;;
6566;SDS011;3317;43.994;22.878;2023-04-15T12:34:16;2.43;;;1.20;;
6566;SDS011;3317;43.994;22.878;2023-04-15T12:36:50;2.17;;;1.30;;
6566;SDS011;3317;43.994;22.878;2023-04-15T12:39:20;2.17;;;1.20;;
6566;SDS011;3317;43.994;22.878;2023-04-15T12:41:49;6.07;;;1.10;;
6566;SDS011;3317;43.994;22.878;2023-04-15T12:44:16;4.40;;;1.53;;
6566;SDS011;3317;43.994;22.878;2023-04-15T12:46:44;5.23;;;1.57;;
6566;SDS011;3317;43.994;22.878;2023-04-15T12:49:11;1.57;;;1.40;;
6566;SDS011;3317;43.994;22.878;2023-04-15T12:51:40;8.70;;;1.47;;
6566;SDS011;3317;43.994;22.878;2023-04-15T12:54:07;4.60;;;1.40;;
6566;SDS011;3317;43.994;22.878;2023-04-15T12:56:33;2.40;;;1.13;;
6566;SDS011;3317;43.994;22.878;2023-04-15T12:59:02;4.40;;;1.20;;
6566;SDS011;3317;43.994;22.878;2023-04-15T13:01:29;2.53;;;1.17;;
6566;SDS011;3317;43.994;22.878;2023-04-15T13:03:55;2.00;;;1.20;;
6566;SDS011;3317;43.994;22.878;2023-04-15T13:06:22;3.00;;;1.20;;
6566;SDS011;3317;43.994;22.878;2023-04-15T13:08:49;2.83;;;1.47;;
6566;SDS011;3317;43.994;22.878;2023-04-15T13:11:19;6.43;;;1.40;;
6566;SDS011;3317;43.994;22.878;2023-04-15T13:13:46;2.27;;;1.20;;
6566;SDS011;3317;43.994;22.878;2023-04-15T13:16:17;3.53;;;1.63;;
6566;SDS011;3317;43.994;22.878;2023-04-15T13:18:44;2.30;;;1.10;;
6566;SDS011;3317;43.994;22.878;2023-04-15T13:21:11;4.40;;;1.30;;
6566;SDS011;3317;43.994;22.878;2023-04-15T13:23:40;1.87;;;1.10;;
6566;SDS011;3317;43.994;22.878;2023-04-15T13:26:07;1.40;;;1.10;;
6566;SDS011;3317;43.994;22.878;2023-04-15T13:28:34;1.97;;;1.00;;
6566;SDS011;3317;43.994;22.878;2023-04-15T13:31:00;2.40;;;1.30;;
6566;SDS011;3317;43.994;22.878;2023-04-15T13:33:29;2.23;;;1.10;;
6566;SDS011;3317;43.994;22.878;2023-04-15T13:35:56;3.80;;;1.40;;
6566;SDS011;3317;43.994;22.878;2023-04-15T13:38:23;2.07;;;1.30;;
6566;SDS011;3317;43.994;22.878;2023-04-15T13:40:50;2.47;;;1.30;;
6566;SDS011;3317;43.994;22.878;2023-04-15T13:43:17;2.07;;;1.20;;
6566;SDS011;3317;43.994;22.878;2023-04-15T13:45:45;1.97;;;1.30;;
6566;SDS011;3317;43.994;22.878;2023-04-15T13:48:12;2.40;;;1.50;;
6566;SDS011;3317;43.994;22.878;2023-04-15T13:50:41;3.80;;;1.20;;
6566;SDS011;3317;43.994;22.878;2023-04-15T13:53:09;4.53;;;1.20;;
6566;SDS011;3317;43.994;22.878;2023-04-15T13:55:36;1.77;;;1.27;;
6566;SDS011;3317;43.994;22.878;2023-04-15T13:58:06;2.63;;;1.40;;
6566;SDS011;3317;43.994;22.878;2023-04-15T14:00:35;3.90;;;1.30;;
6566;SDS011;3317;43.994;22.878;2023-04-15T14:03:02;2.67;;;1.30;;
6566;SDS011;3317;43.994;22.878;2023-04-15T14:05:29;2.93;;;1.17;;
6566;SDS011;3317;43.994;22.878;2023-04-15T14:07:59;4.10;;;1.50;;
6566;SDS011;3317;43.994;22.878;2023-04-15T14:10:26;1.93;;;1.27;;
6566;SDS011;3317;43.994;22.878;2023-04-15T14:12:53;1.57;;;1.23;;
6566;SDS011;3317;43.994;22.878;2023-04-15T14:15:20;6.30;;;1.27;;
6566;SDS011;3317;43.994;22.878;2023-04-15T14:17:47;2.13;;;1.30;;
6566;SDS011;3317;43.994;22.878;2023-04-15T14:20:16;4.17;;;1.40;;
6566;SDS011;3317;43.994;22.878;2023-04-15T14:22:43;2.47;;;1.20;;
6566;SDS011;3317;43.994;22.878;2023-04-15T14:25:12;2.93;;;1.20;;
6566;SDS011;3317;43.994;22.878;2023-04-15T14:27:39;1.87;;;1.13;;
6566;SDS011;3317;43.994;22.878;2023-04-15T14:30:06;2.43;;;1.10;;
6566;SDS011;3317;43.994;22.878;2023-04-15T14:32:34;1.60;;;1.20;;
6566;SDS011;3317;43.994;22.878;2023-04-15T14:35:02;2.90;;;1.20;;
6566;SDS011;3317;43.994;22.878;2023-04-15T14:37:29;3.23;;;1.27;;
6566;SDS011;3317;43.994;22.878;2023-04-15T14:39:56;1.83;;;1.23;;
6566;SDS011;3317;43.994;22.878;2023-04-15T14:42:24;3.20;;;1.47;;
6566;SDS011;3317;43.994;22.878;2023-04-15T14:44:51;2.40;;;1.20;;
6566;SDS011;3317;43.994;22.878;2023-04-15T14:47:19;2.80;;;1.20;;
6566;SDS011;3317;43.994;22.878;2023-04-15T14:49:46;1.87;;;1.20;;
6566;SDS011;3317;43.994;22.878;2023-04-15T14:52:14;1.93;;;1.13;;
6566;SDS011;3317;43.994;22.878;2023-04-15T14:54:42;1.37;;;0.90;;
6566;SDS011;3317;43.994;22.878;2023-04-15T14:57:09;1.80;;;1.20;;
6566;SDS011;3317;43.994;22.878;2023-04-15T14:59:37;2.57;;;1.30;;
6566;SDS011;3317;43.994;22.878;2023-04-15T15:02:04;2.37;;;1.60;;
6566;SDS011;3317;43.994;22.878;2023-04-15T15:04:32;1.53;;;1.30;;
6566;SDS011;3317;43.994;22.878;2023-04-15T15:07:00;1.87;;;1.20;;
6566;SDS011;3317;43.994;22.878;2023-04-15T15:09:27;1.60;;;1.40;;
6566;SDS011;3317;43.994;22.878;2023-04-15T15:11:54;3.53;;;1.00;;
6566;SDS011;3317;43.994;22.878;2023-04-15T15:14:22;3.23;;;1.30;;